createdAt,value
2023-02-22T00:01:32.650Z,73.9
2023-02-22T00:03:34.599Z,70.7
2023-02-22T00:05:36.570Z,59.3
2023-02-22T00:07:38.545Z,63.5
2023-02-22T00:11:45.537Z,68.2
2023-02-22T00:13:47.495Z,62.7
2023-02-22T00:15:49.594Z,65.3
2023-02-22T00:18:53.920Z,63.2
2023-02-22T00:20:55.925Z,54.4
2023-02-22T00:22:57.872Z,58.6
2023-02-22T00:27:04.853Z,59.9
2023-02-22T00:29:06.812Z,47.6
2023-02-22T00:31:08.797Z,58.5
2023-02-22T00:33:10.744Z,48.5
2023-02-22T00:35:12.728Z,57.1
2023-02-22T00:37:14.709Z,57.4
2023-02-22T00:39:19.720Z,62.1
2023-02-22T00:41:21.746Z,58.9
2023-02-22T00:43:23.659Z,58.7
2023-02-22T00:45:25.621Z,52
2023-02-22T00:47:27.584Z,56.3
2023-02-22T00:49:29.557Z,58.4
2023-02-22T00:51:31.690Z,60.2
2023-02-22T00:53:36.524Z,59.9
2023-02-22T00:55:38.500Z,61.7
2023-02-22T00:57:40.447Z,66.4
2023-02-22T00:59:42.416Z,68.4
2023-02-22T01:01:44.371Z,77.7
2023-02-22T01:03:46.352Z,75.5
2023-02-22T01:05:48.312Z,73
2023-02-22T01:07:53.346Z,73.3
2023-02-22T01:09:55.289Z,64.6
2023-02-22T01:11:57.258Z,78.4
2023-02-22T01:12:59.750Z,80
2023-02-22T01:15:01.741Z,94.5
2023-02-22T01:17:03.672Z,98.4
2023-02-22T01:19:05.648Z,114.3
2023-02-22T01:25:14.586Z,116.9
2023-02-22T01:27:16.551Z,133.2
2023-02-22T01:29:18.512Z,110.2
2023-02-22T01:31:20.713Z,131.9
2023-02-22T01:33:22.444Z,134.5
2023-02-22T01:35:27.460Z,125.7
2023-02-22T01:37:29.429Z,130
2023-02-22T01:39:31.385Z,111.4
2023-02-22T01:41:33.345Z,136.5
2023-02-22T01:43:35.540Z,130.2
2023-02-22T01:45:37.286Z,127.3
2023-02-22T01:51:46.257Z,182
2023-02-22T01:53:48.231Z,171.1
2023-02-22T01:55:50.162Z,165
2023-02-22T01:57:52.120Z,175.5
2023-02-22T01:59:54.084Z,172.8
2023-02-22T02:01:56.046Z,157.3
2023-02-22T02:04:01.065Z,179.1
2023-02-22T02:06:03.010Z,178.9
2023-02-22T02:08:04.975Z,183.1
2023-02-22T02:09:07.474Z,188.4
2023-02-22T02:11:09.439Z,169.3
2023-02-22T02:25:26.224Z,156.8
2023-02-22T02:27:28.192Z,169.2
2023-02-22T02:29:30.180Z,147.1
2023-02-22T02:31:35.358Z,179.5
2023-02-22T02:33:37.150Z,170.7
2023-02-22T02:35:39.124Z,165.7
2023-02-22T02:37:41.084Z,147.5
2023-02-22T02:39:43.059Z,139.3
2023-02-22T02:41:44.981Z,144.6
2023-02-22T02:43:46.980Z,136.9
2023-02-22T02:45:51.960Z,147.9
2023-02-22T02:47:53.909Z,134.6
2023-02-22T02:49:56.062Z,96.6
2023-02-22T02:51:57.840Z,117.6
2023-02-22T02:53:59.799Z,108.6
2023-02-22T02:56:01.778Z,118.7
2023-02-22T02:58:03.725Z,129.8
2023-02-22T03:00:08.757Z,106.3
2023-02-22T03:02:10.701Z,108
2023-02-22T03:04:12.660Z,101.2
2023-02-22T03:06:33.398Z,110.1
2023-02-22T03:08:35.345Z,98.5
2023-02-22T03:10:37.311Z,106
2023-02-22T03:12:42.333Z,110.9
2023-02-22T03:16:46.272Z,88
2023-02-22T03:41:16.275Z,71.6
2023-02-22T03:43:17.895Z,90.9
2023-02-22T03:51:25.694Z,74.7
2023-02-22T03:53:27.655Z,66.2
2023-02-22T03:55:32.683Z,72.1
2023-02-22T03:59:36.562Z,61.8
2023-02-22T04:00:39.107Z,75.4
2023-02-22T04:02:41.105Z,73.6
2023-02-22T04:04:43.000Z,74.5
2023-02-22T04:06:44.921Z,64
2023-02-22T04:08:49.949Z,83.6
2023-02-22T04:10:51.915Z,77.2
2023-02-22T04:12:53.855Z,73.9
2023-02-22T04:14:55.815Z,71.2
2023-02-22T04:16:57.747Z,86.5
2023-02-22T04:18:59.696Z,65.5
2023-02-22T04:21:01.635Z,79
2023-02-22T04:23:06.648Z,92.6
2023-02-22T04:25:08.573Z,66.5
2023-02-22T04:29:12.478Z,73.1
2023-02-22T04:33:16.358Z,67.9
2023-02-22T04:35:18.322Z,73.8
2023-02-22T04:39:25.289Z,83
2023-02-22T04:41:27.198Z,82.6
2023-02-22T04:43:29.234Z,75.9
2023-02-22T04:45:31.132Z,64.9
2023-02-22T04:47:33.034Z,78.8
2023-02-22T04:49:36.832Z,71.1
2023-02-22T04:51:40.096Z,69.9
2023-02-22T04:53:42.058Z,85
2023-02-22T04:55:43.975Z,81.8
2023-02-22T04:56:46.454Z,99.5
2023-02-22T04:58:48.528Z,87.9
2023-02-22T05:00:50.341Z,91.3
2023-02-22T05:02:52.333Z,72.9
2023-02-22T05:04:57.309Z,82.9
2023-02-22T05:06:59.223Z,96.8
2023-02-22T05:09:01.160Z,87.7
2023-02-22T05:11:03.106Z,110
2023-02-22T05:13:05.010Z,104.1
2023-02-22T05:15:06.975Z,102.7
2023-02-22T05:17:08.894Z,97.8
2023-02-22T05:19:15.377Z,97.6
2023-02-22T05:21:17.484Z,100.8
2023-02-22T05:23:19.247Z,106.2
2023-02-22T05:25:21.251Z,98.7
2023-02-22T05:27:23.145Z,111.3
2023-02-22T05:29:25.100Z,117.6
2023-02-22T05:31:27.124Z,98
2023-02-22T05:33:32.023Z,93.3
2023-02-22T05:35:33.965Z,91.3
2023-02-22T05:37:35.902Z,93.5
2023-02-22T05:39:37.849Z,109.3
2023-02-22T05:41:39.816Z,105.9
2023-02-22T05:43:41.732Z,97.6
2023-02-22T05:45:43.679Z,94.8
2023-02-22T05:47:48.680Z,105.1
2023-02-22T05:49:50.615Z,115.5
2023-02-22T05:51:52.539Z,128.8
2023-02-22T05:56:58.920Z,113.4
2023-02-22T06:01:05.857Z,113.6
2023-02-22T06:03:07.793Z,111.4
2023-02-22T06:05:09.734Z,102.2
2023-02-22T06:09:13.613Z,128.2
2023-02-22T06:11:15.986Z,110.3
2023-02-22T06:13:17.475Z,102.2
2023-02-22T06:15:22.488Z,118.8
2023-02-22T06:17:24.408Z,109.3
2023-02-22T06:19:26.364Z,133.4
2023-02-22T06:21:28.286Z,120.1
2023-02-22T06:23:30.215Z,110.4
2023-02-22T06:25:32.183Z,126
2023-02-22T06:27:34.118Z,144.5
2023-02-22T06:31:41.225Z,154.7
2023-02-22T06:33:42.972Z,153.1
2023-02-22T06:39:48.809Z,182.8
2023-02-22T06:41:50.817Z,176.7
2023-02-22T06:43:55.754Z,186.8
2023-02-22T06:45:57.732Z,199.7
2023-02-22T06:47:59.636Z,218.7
2023-02-22T06:50:22.509Z,213.7
2023-02-22T06:52:24.438Z,202.7
2023-02-22T06:54:26.405Z,245.8
2023-02-22T06:56:31.406Z,231.7
2023-02-22T06:58:33.320Z,222.7
2023-02-22T07:00:35.333Z,214.4
2023-02-22T07:02:37.217Z,280
2023-02-22T07:04:40.417Z,254.5
2023-02-22T07:06:41.085Z,255.9
2023-02-22T07:08:43.016Z,268.5
2023-02-22T07:10:48.009Z,252.1
2023-02-22T07:12:49.951Z,254.5
2023-02-22T07:14:51.895Z,262.4
2023-02-22T07:16:53.945Z,277.3
2023-02-22T07:18:55.865Z,304.7
2023-02-22T07:20:57.794Z,292
2023-02-22T07:22:59.728Z,274.8
2023-02-22T07:25:04.744Z,302.3
2023-02-22T07:29:08.611Z,316.5
2023-02-22T07:31:10.544Z,302.9
2023-02-22T07:33:13.366Z,300.6
2023-02-22T07:44:27.726Z,284.9
2023-02-22T07:46:29.663Z,270.4
2023-02-22T07:48:31.596Z,251.4
2023-02-22T07:50:33.532Z,237.9
2023-02-22T07:52:38.540Z,209
2023-02-22T07:54:40.495Z,254.1
2023-02-22T07:56:42.447Z,219.1
2023-02-22T07:58:44.351Z,289.7
2023-02-22T08:00:46.302Z,247.8
2023-02-22T08:02:48.344Z,238.6
2023-02-22T08:04:50.203Z,237.3
2023-02-22T08:06:55.182Z,247.5
2023-02-22T08:08:57.248Z,285.9
2023-02-22T08:10:59.292Z,310.2
2023-02-22T08:13:01.350Z,306.1
2023-02-22T08:17:07.743Z,267.6
2023-02-22T08:19:07.489Z,352.8
2023-02-22T08:27:18.734Z,260.8
2023-02-22T08:33:24.672Z,250.1
2023-02-22T08:35:29.672Z,253.9
2023-02-22T08:37:31.501Z,250.2
2023-02-22T08:39:33.484Z,206
2023-02-22T08:40:35.958Z,188.6
2023-02-22T08:42:37.920Z,193.2
2023-02-22T08:44:39.852Z,207.4
2023-02-22T08:46:41.777Z,216.9
2023-02-22T08:48:46.775Z,226.3
2023-02-22T08:50:48.712Z,202.8
2023-02-22T08:52:50.654Z,174.7
2023-02-22T08:54:52.646Z,206.3
2023-02-22T08:56:54.577Z,207.4
2023-02-22T08:58:56.609Z,241.1
2023-02-22T09:00:58.596Z,162.5
2023-02-22T09:03:03.575Z,177.4
2023-02-22T09:05:05.495Z,197.4
2023-02-22T09:07:07.458Z,171.5
2023-02-22T09:09:09.407Z,184.2
2023-02-22T09:11:11.336Z,184.2
2023-02-22T09:13:13.332Z,161.1
2023-02-22T09:15:15.296Z,176.7
2023-02-22T09:17:20.249Z,140.1
2023-02-22T09:19:22.204Z,149.7
2023-02-22T09:21:24.161Z,158.6
2023-02-22T09:23:26.102Z,145.5
2023-02-22T09:25:28.085Z,144.2
2023-02-22T09:27:30.056Z,151.5
2023-02-22T09:29:31.954Z,132.1
2023-02-22T09:31:37.087Z,134.8
2023-02-22T09:33:38.913Z,131
2023-02-22T09:35:40.879Z,157.7
2023-02-22T09:40:47.312Z,152.6
2023-02-22T09:46:56.226Z,133.6
2023-02-22T09:48:58.193Z,134.3
2023-02-22T09:51:00.160Z,143
2023-02-22T09:53:02.149Z,137.7
2023-02-22T09:57:06.028Z,136.9
2023-02-22T09:59:11.036Z,126.7
2023-02-22T10:01:13.005Z,106.6
2023-02-22T10:03:14.984Z,118.3
2023-02-22T10:05:16.946Z,122.2
2023-02-22T10:07:18.916Z,137.9
2023-02-22T10:09:20.864Z,119.7
2023-02-22T10:11:22.822Z,111.7
2023-02-22T10:15:29.816Z,126.1
2023-02-22T10:17:31.784Z,117.5
2023-02-22T10:19:33.753Z,119.2
2023-02-22T10:21:35.699Z,108.4
2023-02-22T10:23:37.688Z,107.6
2023-02-22T10:25:39.646Z,112.2
2023-02-22T10:31:48.723Z,121.9
2023-02-22T10:34:05.452Z,93.2
2023-02-22T10:36:07.412Z,99.1
2023-02-22T10:38:09.406Z,101.1
2023-02-22T10:40:14.444Z,102.3
2023-02-22T10:44:18.389Z,104.8
2023-02-22T10:46:20.630Z,95.5
2023-02-22T10:48:22.345Z,104.9
2023-02-22T10:50:24.332Z,97.2
2023-02-22T10:52:26.270Z,90.4
2023-02-22T10:54:31.310Z,111
2023-02-22T10:56:33.285Z,99.7
2023-02-22T11:02:39.265Z,107.9
2023-02-22T11:06:43.185Z,107.3
2023-02-22T11:08:49.746Z,102.5
2023-02-22T11:10:51.675Z,88.4
2023-02-22T11:12:53.673Z,95.7
2023-02-22T11:14:55.625Z,86.8
2023-02-22T11:16:57.690Z,90.2
2023-02-22T11:18:59.597Z,87.8
2023-02-22T11:21:01.568Z,90.8
2023-02-22T11:23:06.598Z,94.7
2023-02-22T11:25:08.623Z,110.1
2023-02-22T11:27:10.575Z,101.2
2023-02-22T11:30:15.164Z,101.6
2023-02-22T11:32:17.075Z,108.4
2023-02-22T11:34:19.038Z,105.8
2023-02-22T11:36:24.071Z,87.9
2023-02-22T11:40:28.035Z,92.3
2023-02-22T11:42:30.006Z,103.8
2023-02-22T11:44:32.014Z,95.6
2023-02-22T11:46:34.033Z,93.2
2023-02-22T11:48:35.972Z,107.7
2023-02-22T11:50:41.035Z,103.2
2023-02-22T11:52:43.001Z,95.3
2023-02-22T11:54:44.979Z,92.9
2023-02-22T11:56:46.989Z,84
2023-02-22T11:58:48.965Z,85.8
2023-02-22T12:00:50.940Z,92
2023-02-22T12:03:00.832Z,92.2
2023-02-22T12:04:58.079Z,97.6
2023-02-22T12:06:59.969Z,93.6
2023-02-22T12:11:03.932Z,99.8
2023-02-22T12:15:07.910Z,90.7
2023-02-22T12:17:09.875Z,77.9
2023-02-22T12:19:14.914Z,88.1
2023-02-22T12:21:16.917Z,97.9
2023-02-22T12:23:18.900Z,97.9
2023-02-22T12:24:21.426Z,94.2
2023-02-22T12:26:23.410Z,83
2023-02-22T12:28:25.615Z,86.8
2023-02-22T12:30:27.392Z,88.4
2023-02-22T12:32:32.588Z,77.7
2023-02-22T12:34:34.451Z,82.8
2023-02-22T12:36:36.406Z,75.9
2023-02-22T12:38:38.384Z,92.2
2023-02-22T12:40:40.381Z,78.6
2023-02-22T12:46:49.415Z,90.1
2023-02-22T12:48:51.393Z,73.2
2023-02-22T12:50:53.374Z,77.9
2023-02-22T12:54:57.343Z,83.2
2023-02-22T12:56:59.322Z,78.4
2023-02-22T12:59:01.309Z,73.4
2023-02-22T13:01:07.251Z,78.4
2023-02-22T13:03:08.356Z,73.5
2023-02-22T13:05:10.357Z,81.9
2023-02-22T13:07:12.336Z,74.8
2023-02-22T13:09:14.313Z,76.5
2023-02-22T13:11:16.733Z,82.3
2023-02-22T13:13:18.291Z,84.6
2023-02-22T13:15:23.332Z,83.4
2023-02-22T13:19:27.324Z,70.9
2023-02-22T13:20:29.841Z,82.6
2023-02-22T13:22:31.812Z,74.4
2023-02-22T13:24:33.815Z,73.3
2023-02-22T13:26:35.811Z,57.6
2023-02-22T13:28:40.857Z,72.2
2023-02-22T13:30:42.913Z,62.2
2023-02-22T13:32:44.800Z,64.2
2023-02-22T13:34:46.786Z,58.3
2023-02-22T13:36:48.791Z,59.7
2023-02-22T13:38:50.767Z,65.9
2023-02-22T13:40:52.760Z,62.8
2023-02-22T13:42:57.825Z,65.1
2023-02-22T13:44:59.804Z,62.8
2023-02-22T13:47:01.754Z,59
2023-02-22T13:49:03.752Z,53.9
2023-02-22T13:51:05.855Z,50.7
2023-02-22T13:53:07.721Z,62.6
2023-02-22T13:55:09.703Z,73.4
2023-02-22T13:59:16.731Z,54.9
2023-02-22T14:01:18.930Z,62
2023-02-22T14:03:20.730Z,59.8
2023-02-22T14:05:22.758Z,59.9
2023-02-22T14:09:26.672Z,54.5
2023-02-22T14:11:31.725Z,61.9
2023-02-22T14:13:33.728Z,58.8
2023-02-22T14:15:35.724Z,69.4
2023-02-22T14:17:58.509Z,41.1
2023-02-22T14:22:02.639Z,49.3
2023-02-22T14:24:07.532Z,44.4
2023-02-22T14:26:09.515Z,52.9
2023-02-22T14:28:11.534Z,46.1
2023-02-22T14:30:13.559Z,43.5
2023-02-22T14:32:15.637Z,60.1
2023-02-22T14:34:17.501Z,53.7
2023-02-22T14:36:19.552Z,47.2
2023-02-22T14:38:24.609Z,46.2
2023-02-22T14:40:26.514Z,48.9
2023-02-22T14:42:28.546Z,48.6
2023-02-22T14:44:30.478Z,44.5
2023-02-22T14:46:32.471Z,48.2
2023-02-22T14:48:34.452Z,51.8
2023-02-22T14:50:36.444Z,57.4
2023-02-22T14:52:41.487Z,51.4
2023-02-22T14:58:47.443Z,55.7
2023-02-22T15:00:49.449Z,60.2
2023-02-22T15:02:51.546Z,58.3
2023-02-22T15:04:53.479Z,64.8
2023-02-22T15:06:58.494Z,50
2023-02-22T15:09:00.464Z,54.1
2023-02-22T15:11:02.439Z,59.8
2023-02-22T15:12:05.241Z,61.8
2023-02-22T15:14:12.264Z,70.7
2023-02-22T15:16:09.002Z,73.7
2023-02-22T15:18:10.951Z,63.1
2023-02-22T15:20:16.003Z,57.7
2023-02-22T15:22:17.989Z,77.7
2023-02-22T15:24:20.094Z,65.7
2023-02-22T15:26:21.957Z,66.9
2023-02-22T15:28:24.052Z,63.2
2023-02-22T15:30:25.996Z,64.8
2023-02-22T15:32:27.968Z,51.1
2023-02-22T15:34:32.990Z,58.6
2023-02-22T15:36:34.976Z,54
2023-02-22T15:38:36.967Z,69.8
2023-02-22T15:40:38.961Z,53.8
2023-02-22T15:42:40.948Z,63.5
2023-02-22T15:44:42.943Z,53.8
2023-02-22T15:52:53.962Z,62
2023-02-22T15:56:57.939Z,55.4
2023-02-22T15:58:59.921Z,59.1
2023-02-22T16:01:01.992Z,58.6
2023-02-22T16:03:06.956Z,51.8
2023-02-22T16:05:08.946Z,69.3
2023-02-22T16:07:10.931Z,65.1
2023-02-22T16:08:13.479Z,64.7
2023-02-22T16:10:15.442Z,66.7
2023-02-22T16:12:17.408Z,60.7
2023-02-22T16:14:19.402Z,62.7
2023-02-22T16:16:24.483Z,57.6
2023-02-22T16:18:26.477Z,67.9
2023-02-22T16:20:28.431Z,65.5
2023-02-22T16:22:30.425Z,61.8
2023-02-22T16:24:32.389Z,59.4
2023-02-22T16:26:34.370Z,53.4
2023-02-22T16:28:36.365Z,57.1
2023-02-22T16:30:41.458Z,58.1
2023-02-22T16:32:43.596Z,61.4
2023-02-22T16:34:45.435Z,73.4
2023-02-22T16:36:47.357Z,64.9
2023-02-22T16:38:49.338Z,74.2
2023-02-22T16:40:51.306Z,60.2
2023-02-22T16:44:58.366Z,52.5
2023-02-22T16:47:00.326Z,69.2
2023-02-22T16:49:02.305Z,70.9
2023-02-22T16:51:04.287Z,67.1
2023-02-22T16:53:06.266Z,71.8
2023-02-22T16:55:08.239Z,73.3
2023-02-22T16:57:10.229Z,68.2
2023-02-22T17:01:18.842Z,77.4
2023-02-22T17:03:20.738Z,64.2
2023-02-22T17:08:27.667Z,65.4
2023-02-22T17:10:29.634Z,59
2023-02-22T17:14:36.670Z,64.7
2023-02-22T17:16:38.629Z,57.2
2023-02-22T17:18:40.618Z,59.7
2023-02-22T17:22:45.572Z,57.1
2023-02-22T17:24:46.578Z,82
2023-02-22T17:26:51.590Z,62.7
2023-02-22T17:28:53.591Z,60.6
2023-02-22T17:32:57.546Z,64
2023-02-22T17:37:01.519Z,57.8
2023-02-22T17:39:03.517Z,78.4
2023-02-22T17:41:08.567Z,52.5
2023-02-22T17:43:10.534Z,56.3
2023-02-22T17:45:12.527Z,42.5
2023-02-22T17:49:16.489Z,51.1
2023-02-22T17:53:20.451Z,47.7
2023-02-22T17:57:27.498Z,58.8
2023-02-22T17:59:29.462Z,57.8
2023-02-22T18:03:54.279Z,58.7
2023-02-22T18:08:01.308Z,54.7
2023-02-22T18:10:03.290Z,54.7
2023-02-22T18:12:05.284Z,57.6
2023-02-22T18:14:09.179Z,52.6
2023-02-22T18:16:09.340Z,53
2023-02-22T18:18:11.221Z,60.3
2023-02-22T18:22:18.259Z,56.6
2023-02-22T18:24:20.262Z,54.8
2023-02-22T18:26:22.269Z,52.4
2023-02-22T18:28:24.212Z,57
2023-02-22T18:30:26.237Z,55.7
2023-02-22T18:32:28.237Z,57.1
2023-02-22T18:34:30.186Z,47.7
2023-02-22T18:36:35.213Z,52.8
2023-02-22T18:38:37.215Z,54.5
2023-02-22T18:40:39.197Z,65
2023-02-22T18:42:41.160Z,65.7
2023-02-22T18:44:43.162Z,68
2023-02-22T18:46:45.273Z,60.2
2023-02-22T18:48:47.145Z,58.7
2023-02-22T18:50:52.173Z,66.3
2023-02-22T18:55:58.644Z,69.1
2023-02-22T18:58:00.620Z,62
2023-02-22T19:00:02.628Z,64.8
2023-02-22T19:02:04.674Z,70.9
2023-02-22T19:04:09.664Z,66.1
2023-02-22T19:06:11.612Z,81.8
2023-02-22T19:08:13.605Z,66.7
2023-02-22T19:10:15.568Z,68.6
2023-02-22T19:12:17.545Z,74.1
2023-02-22T19:14:19.588Z,60.3
2023-02-22T19:16:22.025Z,77.2
2023-02-22T19:18:26.554Z,74.7
2023-02-22T19:20:28.534Z,77
2023-02-22T19:22:30.524Z,108.7
2023-02-22T19:24:32.500Z,88
2023-02-22T19:28:36.459Z,86.4
2023-02-22T19:30:38.484Z,90.6
2023-02-22T19:32:43.521Z,93.9
2023-02-22T19:34:45.461Z,89.5
2023-02-22T19:36:47.457Z,86.9
2023-02-22T19:38:49.412Z,98.8
2023-02-22T19:40:51.399Z,90.5
2023-02-22T19:42:53.388Z,91.3
2023-02-22T19:44:55.353Z,93.9
2023-02-22T19:47:00.398Z,93.1
2023-02-22T19:49:02.396Z,97
2023-02-22T19:52:06.880Z,97.2
2023-02-22T19:54:08.854Z,99.4
2023-02-22T19:56:10.839Z,102.4
2023-02-22T20:10:27.789Z,103.5
2023-02-22T20:16:36.807Z,135.5
2023-02-22T20:18:38.779Z,107.7
2023-02-22T20:26:46.774Z,106.8
2023-02-22T20:34:57.664Z,111.6
2023-02-22T20:43:08.669Z,120.3
2023-02-22T20:45:12.005Z,113.9
2023-02-22T20:47:12.613Z,110.6
2023-02-22T20:48:15.137Z,128.6
2023-02-22T20:50:17.129Z,121.8
2023-02-22T20:52:19.100Z,119.1
2023-02-22T20:54:21.077Z,117.5
2023-02-22T20:58:28.098Z,132.9
2023-02-22T21:08:37.999Z,137.5
2023-02-22T21:10:43.038Z,153.7
2023-02-22T21:12:45.006Z,130.1
2023-02-22T21:14:47.001Z,129.6
2023-02-22T21:16:49.091Z,131.7
2023-02-22T21:18:50.944Z,131.8
2023-02-22T21:20:52.942Z,142.5
2023-02-22T21:22:54.895Z,147.7
2023-02-22T21:24:59.961Z,161.4
2023-02-22T21:27:01.910Z,135.1
2023-02-22T21:31:05.994Z,153
2023-02-22T21:33:07.863Z,145.9
2023-02-22T21:35:09.842Z,149.5
2023-02-22T21:37:11.804Z,148.7
2023-02-22T21:39:16.859Z,153.2
2023-02-22T21:41:19.149Z,158.9
2023-02-22T21:43:20.795Z,151.8
2023-02-22T21:45:37.773Z,158.3
2023-02-22T21:47:39.753Z,164
2023-02-22T21:51:46.786Z,145.3
2023-02-22T21:53:48.777Z,158.3
2023-02-22T21:57:52.723Z,163.7
2023-02-22T22:01:56.774Z,146.5
2023-02-22T22:03:58.647Z,137.7
2023-02-22T22:06:03.692Z,162.6
2023-02-22T22:10:07.625Z,144.9
2023-02-22T22:12:09.618Z,156.7
2023-02-22T22:14:11.591Z,159
2023-02-22T22:16:13.656Z,157.3
2023-02-22T22:20:20.610Z,178.8
2023-02-22T22:22:22.580Z,164.9
2023-02-22T22:24:24.551Z,183.9
2023-02-22T22:26:26.590Z,170.3
2023-02-22T22:28:28.543Z,177.2
2023-02-22T22:30:30.504Z,176
2023-02-22T22:34:37.464Z,161.9
2023-02-22T22:41:45.935Z,169.7
2023-02-22T22:43:47.887Z,170.8
2023-02-22T22:49:56.847Z,172
2023-02-22T22:52:00.369Z,178.8
2023-02-22T22:54:02.302Z,169.7
2023-02-22T22:56:04.295Z,165.4
2023-02-22T23:02:13.280Z,172.2
2023-02-22T23:06:17.201Z,169.5
2023-02-22T23:08:19.176Z,173.6
2023-02-22T23:10:21.151Z,167.2
2023-02-22T23:14:25.100Z,171.5
2023-02-22T23:16:30.142Z,167.4
2023-02-22T23:18:32.114Z,185.8
2023-02-22T23:20:34.082Z,155.9
2023-02-22T23:24:38.016Z,160.5
2023-02-22T23:30:47.029Z,173.2
2023-02-22T23:35:53.451Z,172.2
2023-02-22T23:37:55.428Z,166.7
2023-02-22T23:39:57.433Z,162.9
2023-02-22T23:41:59.700Z,168.1
2023-02-22T23:44:04.423Z,154.1
2023-02-22T23:46:06.398Z,155.4
2023-02-22T23:48:08.373Z,176.9
2023-02-22T23:50:10.328Z,160.6
2023-02-22T23:52:12.307Z,167.1
2023-02-22T23:54:14.285Z,168.4
2023-02-22T23:56:16.270Z,170.8
2023-02-22T23:58:21.302Z,179.1
